Time;durP1;ratioP1;P1;durP2;ratioP2;P2;SDS_P1;SDS_P2;PMS_P1;PMS_P2;Temp;Humidity;BMP_temperature;BMP_pressure;BME280_temperature;BME280_humidity;BME280_pressure;Samples;Min_cycle;Max_cycle;Signal;HPM_P1;HPM_P2
2022/03/02 07:35:20;;;;;;;30.58;14.35;;;1.30;99.90;;;;;;6296196;22;20024;-85
2022/03/02 09:54:37;;;;;;;35.40;19.20;;;5.80;99.90;;;;;;6277703;22;20047;-85
2022/03/02 10:00:46;;;;;;;30.77;16.33;;;6.00;99.90;;;;;;6272615;22;20054;-82
2022/03/02 10:03:18;;;;;;;32.55;16.42;;;6.10;99.90;;;;;;6249343;22;20016;-82
2022/03/02 10:05:48;;;;;;;35.35;17.80;;;6.20;99.90;;;;;;6249798;22;20011;-83
2022/03/02 10:09:14;;;;;;;35.00;18.55;;;6.20;99.90;;;;;;6248951;22;20056;-83
2022/03/02 10:13:01;;;;;;;;;;;;;;;;;;;;;
2022/03/02 10:35:10;;;;;;;31.77;15.90;;;7.00;99.90;;;;;;6245923;23;20039;-84
2022/03/02 10:46:57;;;;;;;;;;;;;;;;;;;;;
2022/03/02 10:56:18;;;;;;;32.20;17.30;;;7.60;99.90;;;;;;6243108;22;20855;-84
2022/03/02 10:59:22;;;;;;;35.85;15.90;;;7.60;99.90;;;;;;6252814;22;20571;-84
2022/03/02 12:25:22;;;;;;;25.33;14.25;;;9.40;99.90;;;;;;6093294;23;20150;-83
2022/03/02 12:28:09;;;;;;;25.08;13.45;;;9.20;99.90;;;;;;6046267;23;20022;-81
2022/03/02 14:59:17;;;;;;;29.17;15.60;;;9.10;99.90;;;;;;6289978;22;20485;-88
2022/03/02 15:17:07;;;;;;;28.40;15.03;;;9.00;99.90;;;;;;6259659;22;20928;-85
2022/03/02 15:19:36;;;;;;;27.23;15.25;;;8.80;99.90;;;;;;6229669;22;20265;-82
2022/03/02 15:22:08;;;;;;;25.83;13.85;;;8.80;99.90;;;;;;6277583;22;20019;-84
2022/03/02 15:24:47;;;;;;;26.30;14.88;;;8.80;99.90;;;;;;6275401;22;20316;-83
2022/03/02 15:27:16;;;;;;;27.73;14.77;;;8.80;99.90;;;;;;6277407;22;20319;-84
2022/03/02 15:29:42;;;;;;;26.42;14.90;;;8.70;99.90;;;;;;6274739;22;20043;-86
2022/03/02 15:32:15;;;;;;;27.50;14.77;;;8.60;99.90;;;;;;6276670;22;20016;-83
2022/03/02 15:34:50;;;;;;;30.20;15.73;;;8.60;99.90;;;;;;6276118;22;20016;-84
2022/03/02 15:40:23;;;;;;;27.63;14.48;;;8.50;99.90;;;;;;6338638;22;20019;-81
2022/03/02 15:43:04;;;;;;;24.98;13.52;;;8.50;99.90;;;;;;6337820;22;20075;-83
2022/03/02 15:56:58;;;;;;;28.80;13.90;;;8.30;99.90;;;;;;6338408;22;20017;-86
2022/03/02 15:59:26;;;;;;;29.92;15.55;;;8.10;99.90;;;;;;6310859;22;20015;-82
2022/03/02 16:06:20;;;;;;;;;;;;;;;;;;;;;
2022/03/02 16:09:02;;;;;;;28.17;14.63;;;8.00;99.90;;;;;;6036057;23;20362;-83
2022/03/02 16:12:01;;;;;;;29.80;15.25;;;7.80;99.90;;;;;;6035666;23;20031;-86
2022/03/02 16:15:29;;;;;;;29.98;14.93;;;7.80;99.90;;;;;;5951703;24;20057;-85
2022/03/02 16:18:13;;;;;;;;;;;;;;;;;;;;;
2022/03/02 16:21:02;;;;;;;27.58;13.95;;;7.80;99.90;;;;;;6271443;22;20016;-86
2022/03/02 16:23:39;;;;;;;27.67;14.68;;;7.60;99.90;;;;;;6274988;22;20438;-87
2022/03/02 16:26:31;;;;;;;28.70;14.35;;;7.50;99.90;;;;;;6274807;22;20020;-86
2022/03/02 16:29:29;;;;;;;31.10;14.75;;;7.40;99.90;;;;;;6223621;22;20345;-87
2022/03/02 16:32:01;;;;;;;29.92;14.68;;;7.20;99.90;;;;;;6275137;22;20421;-85
2022/03/02 16:34:42;;;;;;;28.23;14.27;;;7.10;99.90;;;;;;6247994;22;20024;-85
2022/03/02 16:40:51;;;;;;;28.88;16.00;;;7.00;99.90;;;;;;6122000;23;20114;-86
2022/03/02 16:43:22;;;;;;;30.90;16.02;;;6.90;99.90;;;;;;6098078;23;20025;-86
2022/03/02 16:46:31;;;;;;;28.85;14.88;;;7.00;99.90;;;;;;6098421;23;20062;-86
2022/03/02 16:49:06;;;;;;;29.83;14.90;;;7.10;99.90;;;;;;6097081;23;20037;-86
2022/03/02 16:51:37;;;;;;;31.67;15.10;;;6.60;99.90;;;;;;6122592;23;20037;-86
2022/03/02 16:56:34;;;;;;;33.08;15.73;;;6.40;99.90;;;;;;6245113;22;20027;-87
2022/03/02 17:03:47;;;;;;;31.08;14.77;;;6.30;99.90;;;;;;6306723;22;20014;-85
2022/03/02 17:09:09;;;;;;;30.90;13.98;;;6.50;99.90;;;;;;6305919;22;20019;-86
2022/03/02 17:11:38;;;;;;;30.58;15.55;;;5.90;99.90;;;;;;6309947;22;20049;-89
2022/03/02 17:36:29;;;;;;;36.45;17.30;;;5.20;99.90;;;;;;6296082;22;20077;-86
2022/03/02 17:38:56;;;;;;;30.50;15.10;;;5.00;99.90;;;;;;6247416;22;20026;-85
2022/03/02 17:41:22;;;;;;;28.55;14.00;;;4.40;99.90;;;;;;6274949;22;20099;-86
2022/03/02 17:43:51;;;;;;;27.70;14.57;;;5.40;99.90;;;;;;6275158;22;20489;-85
2022/03/02 17:49:57;;;;;;;33.83;15.75;;;5.10;99.90;;;;;;6275392;22;20030;-85
2022/03/02 17:52:23;;;;;;;33.08;14.40;;;5.20;99.90;;;;;;6222857;22;20015;-85
2022/03/02 17:54:56;;;;;;;30.65;14.75;;;4.60;99.90;;;;;;6275094;22;20047;-85
2022/03/02 17:57:28;;;;;;;36.80;16.45;;;4.70;99.90;;;;;;6222186;22;20337;-84
2022/03/02 18:00:00;;;;;;;31.92;15.57;;;5.00;99.90;;;;;;6275027;22;20095;-85
2022/03/02 18:02:35;;;;;;;27.33;14.20;;;4.50;99.90;;;;;;6248622;22;20639;-86
2022/03/02 18:05:10;;;;;;;30.45;15.38;;;4.50;99.90;;;;;;6222378;22;20027;-84
2022/03/02 18:07:51;;;;;;;32.58;15.48;;;4.40;99.90;;;;;;6275405;22;20385;-85
2022/03/02 18:10:19;;;;;;;34.67;16.02;;;5.30;99.90;;;;;;6274081;22;20015;-86
2022/03/02 18:13:49;;;;;;;30.27;14.82;;;4.10;99.90;;;;;;6277732;22;20034;-85
2022/03/02 18:16:58;;;;;;;;;;;;;;;;;;;;;
2022/03/02 18:22:59;;;;;;;39.08;17.77;;;4.20;99.90;;;;;;6094589;23;20063;-88
2022/03/02 18:25:25;;;;;;;31.33;15.60;;;4.60;99.90;;;;;;6070371;23;20022;-89
2022/03/02 18:28:41;;;;;;;35.13;16.15;;;4.00;99.90;;;;;;6094781;23;20022;-86
2022/03/02 18:34:00;;;;;;;32.80;14.68;;;3.90;99.90;;;;;;6276555;22;20031;-89
2022/03/02 18:36:33;;;;;;;33.17;15.18;;;4.60;99.90;;;;;;6249537;22;20034;-87
2022/03/02 18:41:37;;;;;;;32.10;14.52;;;3.80;99.90;;;;;;6277438;22;20077;-87
2022/03/02 18:44:04;;;;;;;28.20;13.15;;;3.70;99.90;;;;;;6249701;22;20023;-89
2022/03/02 18:46:30;;;;;;;29.67;14.13;;;3.70;99.90;;;;;;6277428;22;20086;-86
2022/03/02 18:48:57;;;;;;;31.95;14.50;;;4.20;99.90;;;;;;6277776;22;20375;-87
2022/03/02 18:51:22;;;;;;;29.73;13.70;;;4.10;99.90;;;;;;6273844;22;20110;-88
2022/03/02 18:53:48;;;;;;;30.95;13.68;;;3.50;99.90;;;;;;6253544;22;20016;-88
2022/03/02 18:56:17;;;;;;;30.48;14.77;;;3.40;99.90;;;;;;6278465;22;20011;-89
2022/03/02 18:58:43;;;;;;;29.20;14.00;;;3.90;99.90;;;;;;6281666;22;20108;-88
2022/03/02 19:01:10;;;;;;;37.17;16.60;;;4.10;99.90;;;;;;6279750;22;20107;-88
2022/03/02 19:03:38;;;;;;;33.95;16.38;;;3.30;99.90;;;;;;6307281;22;20078;-89
2022/03/02 19:06:03;;;;;;;29.73;14.77;;;3.20;99.90;;;;;;6307609;22;20511;-89
2022/03/02 19:08:29;;;;;;;36.53;16.25;;;3.90;99.90;;;;;;6307780;22;20050;-86
2022/03/02 19:10:55;;;;;;;33.25;15.00;;;3.20;99.90;;;;;;6280690;22;20015;-88
2022/03/02 19:13:21;;;;;;;31.02;14.73;;;3.30;99.90;;;;;;6307673;22;20015;-86
2022/03/02 19:15:46;;;;;;;29.65;14.02;;;3.10;99.90;;;;;;6280753;22;20022;-89
2022/03/02 19:18:12;;;;;;;30.02;14.43;;;3.30;99.90;;;;;;6308068;22;20039;-89
2022/03/02 19:20:38;;;;;;;34.78;16.00;;;2.90;99.90;;;;;;6308006;22;20130;-86
2022/03/02 19:23:04;;;;;;;32.28;14.65;;;2.90;99.90;;;;;;6279598;22;20018;-89
2022/03/02 19:25:33;;;;;;;30.25;14.27;;;3.40;99.90;;;;;;6279812;22;20019;-88
2022/03/02 19:28:00;;;;;;;26.95;13.75;;;2.20;99.90;;;;;;6280035;22;20030;-88
2022/03/02 19:30:26;;;;;;;31.85;14.10;;;2.80;99.90;;;;;;6306784;22;20053;-89
2022/03/02 19:32:52;;;;;;;31.85;15.15;;;2.20;99.90;;;;;;6307585;22;20011;-90
2022/03/02 19:35:18;;;;;;;29.08;13.80;;;1.70;99.90;;;;;;6307533;22;20046;-90
2022/03/02 19:37:47;;;;;;;31.33;14.27;;;3.80;99.90;;;;;;6279809;22;20019;-89
2022/03/02 19:40:14;;;;;;;27.88;13.43;;;2.60;99.90;;;;;;6280082;22;20022;-89
2022/03/02 19:42:40;;;;;;;33.78;15.48;;;2.60;99.90;;;;;;6279807;22;20019;-89
2022/03/02 19:49:12;;;;;;;33.35;15.55;;;2.50;99.90;;;;;;6307302;22;20077;-90
2022/03/02 19:51:38;;;;;;;33.05;15.23;;;2.40;99.90;;;;;;6307678;22;20503;-87
2022/03/02 19:54:05;;;;;;;30.90;14.32;;;2.40;99.90;;;;;;6280299;22;20011;-89
2022/03/02 19:56:34;;;;;;;32.72;14.23;;;2.30;99.90;;;;;;6279255;22;20019;-90
2022/03/02 19:59:01;;;;;;;28.42;14.38;;;2.30;99.90;;;;;;6306471;22;20445;-89
2022/03/02 20:01:28;;;;;;;30.00;13.05;;;2.30;99.90;;;;;;6279238;22;20397;-89
2022/03/02 20:03:53;;;;;;;32.38;13.30;;;2.80;99.90;;;;;;6307203;22;20023;-90
2022/03/02 20:06:19;;;;;;;30.52;14.20;;;2.20;99.90;;;;;;6307033;22;20011;-84
2022/03/02 20:08:46;;;;;;;29.80;14.38;;;2.20;99.90;;;;;;6307345;22;20047;-88
2022/03/02 20:11:14;;;;;;;34.45;15.15;;;2.20;99.90;;;;;;6307278;22;20018;-90
2022/03/02 20:13:40;;;;;;;35.67;17.25;;;2.20;99.90;;;;;;6280052;22;20022;-89
2022/03/02 20:16:06;;;;;;;33.03;15.30;;;3.00;99.90;;;;;;6307344;22;20020;-89
2022/03/02 20:18:33;;;;;;;41.33;18.45;;;2.10;99.90;;;;;;6279577;22;20019;-90
2022/03/02 20:20:59;;;;;;;47.33;20.42;;;2.40;99.90;;;;;;6279630;22;20023;-90
2022/03/02 20:23:25;;;;;;;37.80;15.98;;;2.10;99.90;;;;;;6307427;22;20341;-90
2022/03/02 20:25:51;;;;;;;37.28;17.23;;;2.70;99.90;;;;;;6307749;22;20015;-89
2022/03/02 20:28:18;;;;;;;38.30;16.83;;;2.10;99.90;;;;;;6278975;22;20130;-89
2022/03/02 20:30:50;;;;;;;40.53;18.00;;;1.70;99.90;;;;;;6280862;22;20016;-89
2022/03/02 20:33:19;;;;;;;40.63;18.98;;;2.10;99.90;;;;;;6255922;22;20057;-86
2022/03/02 20:35:45;;;;;;;40.63;17.20;;;2.10;99.90;;;;;;6308002;22;20098;-89
2022/03/02 20:38:14;;;;;;;41.28;18.42;;;2.10;99.90;;;;;;6281979;22;20015;-91
2022/03/02 20:40:41;;;;;;;41.72;18.08;;;3.10;99.90;;;;;;6282286;22;20023;-89
2022/03/02 20:43:10;;;;;;;49.70;21.10;;;2.60;99.90;;;;;;6279537;22;20076;-91
2022/03/02 20:45:40;;;;;;;43.47;18.95;;;2.10;99.90;;;;;;6280588;22;20055;-91
2022/03/02 20:48:07;;;;;;;35.75;16.10;;;2.70;99.90;;;;;;6280021;22;20030;-90
2022/03/02 20:50:38;;;;;;;38.58;17.88;;;2.60;99.90;;;;;;6253878;22;20016;-88
2022/03/02 20:53:05;;;;;;;43.38;19.02;;;2.00;99.90;;;;;;6279756;22;20014;-90
2022/03/02 20:55:32;;;;;;;51.22;22.70;;;2.90;99.90;;;;;;6306944;22;20345;-90
2022/03/02 20:57:58;;;;;;;49.78;22.85;;;2.10;99.90;;;;;;6279618;22;20020;-90
2022/03/02 21:00:24;;;;;;;50.70;22.75;;;2.10;99.90;;;;;;6306652;22;20021;-91
2022/03/02 21:02:50;;;;;;;50.05;21.38;;;2.70;99.90;;;;;;6306730;22;20011;-89
2022/03/02 21:05:16;;;;;;;45.75;20.25;;;3.40;99.90;;;;;;6279791;22;20026;-90
2022/03/02 21:07:42;;;;;;;43.92;19.23;;;3.20;99.90;;;;;;6307081;22;20015;-91
2022/03/02 21:10:09;;;;;;;41.08;18.20;;;1.90;99.90;;;;;;6306619;22;20023;-91
2022/03/02 21:12:35;;;;;;;44.28;18.63;;;2.00;99.90;;;;;;6306453;22;20434;-89
2022/03/02 21:15:01;;;;;;;41.53;19.65;;;2.70;99.90;;;;;;6306348;22;20732;-88
2022/03/02 21:17:27;;;;;;;59.42;23.70;;;2.70;99.90;;;;;;6306859;22;20442;-89
2022/03/02 21:19:54;;;;;;;47.20;21.23;;;1.90;99.90;;;;;;6253674;22;20026;-90
2022/03/02 21:22:20;;;;;;;51.67;22.30;;;1.90;99.90;;;;;;6306222;22;20016;-89
2022/03/02 21:24:45;;;;;;;42.78;18.95;;;2.00;99.90;;;;;;6307290;22;20015;-91
2022/03/02 21:27:13;;;;;;;40.75;17.90;;;1.80;99.90;;;;;;6306853;22;20306;-91
2022/03/02 21:29:38;;;;;;;43.95;16.17;;;3.10;99.90;;;;;;6306333;22;20025;-89
2022/03/02 21:32:05;;;;;;;40.10;16.73;;;3.70;99.90;;;;;;6279233;22;20086;-91
2022/03/02 21:34:35;;;;;;;46.55;22.15;;;1.80;99.90;;;;;;6279441;22;20018;-91
2022/03/02 21:37:03;;;;;;;50.42;22.30;;;2.00;99.90;;;;;;6306616;22;20007;-90
2022/03/02 21:39:28;;;;;;;49.15;20.27;;;1.80;99.90;;;;;;6306557;22;20399;-89
2022/03/02 21:41:55;;;;;;;50.90;20.42;;;2.80;99.90;;;;;;6278899;22;20023;-89
2022/03/02 21:44:21;;;;;;;47.17;19.35;;;1.10;99.90;;;;;;6306397;22;20019;-91
2022/03/02 21:46:47;;;;;;;39.97;17.17;;;1.70;99.90;;;;;;6306302;22;20053;-90
2022/03/02 21:49:12;;;;;;;47.08;20.20;;;2.60;99.90;;;;;;6308415;22;20015;-91
2022/03/02 21:51:41;;;;;;;41.03;19.25;;;1.50;99.90;;;;;;6308719;22;20315;-90
2022/03/02 21:54:07;;;;;;;46.67;18.83;;;1.60;99.90;;;;;;6308884;22;20011;-91
2022/03/02 21:56:33;;;;;;;42.00;19.25;;;1.60;99.90;;;;;;6282336;22;20021;-89
2022/03/02 21:58:58;;;;;;;43.40;17.42;;;2.10;99.90;;;;;;6281726;22;20019;-90
2022/03/02 22:01:24;;;;;;;42.47;17.98;;;1.60;99.90;;;;;;6310833;22;20088;-89
2022/03/02 22:03:50;;;;;;;36.83;16.50;;;1.50;99.90;;;;;;6262404;22;20015;-89
2022/03/02 22:06:16;;;;;;;39.75;17.42;;;1.50;99.90;;;;;;6314326;22;20114;-90
2022/03/02 22:08:41;;;;;;;41.47;17.08;;;1.50;99.90;;;;;;6280707;22;20015;-90
2022/03/02 22:11:07;;;;;;;39.13;17.55;;;1.40;99.90;;;;;;6280558;22;20022;-89
2022/03/02 22:13:33;;;;;;;41.95;16.88;;;0.90;99.90;;;;;;6280606;22;20488;-89
2022/03/02 22:15:58;;;;;;;44.10;18.15;;;1.40;99.90;;;;;;6280783;22;20109;-90
2022/03/02 22:18:24;;;;;;;40.00;16.58;;;2.40;99.90;;;;;;6308862;22;20303;-90
2022/03/02 22:20:50;;;;;;;39.38;18.83;;;1.30;99.90;;;;;;6308434;22;20086;-88
2022/03/02 22:23:16;;;;;;;45.90;19.83;;;1.30;99.90;;;;;;6308730;22;20023;-89
2022/03/02 22:25:41;;;;;;;48.50;20.50;;;1.30;99.90;;;;;;6308630;22;20015;-89
2022/03/02 22:28:07;;;;;;;43.08;19.30;;;1.30;99.90;;;;;;6280410;22;20023;-90
2022/03/02 22:30:33;;;;;;;45.08;20.30;;;1.30;99.90;;;;;;6255536;22;20015;-89
2022/03/02 22:32:58;;;;;;;52.20;21.15;;;1.20;99.90;;;;;;6307866;22;20104;-89
2022/03/02 22:35:24;;;;;;;41.35;20.20;;;1.20;99.90;;;;;;6308227;22;20060;-88
2022/03/02 22:37:50;;;;;;;41.72;17.77;;;1.20;99.90;;;;;;6308263;22;20019;-82
2022/03/02 22:40:16;;;;;;;46.00;20.42;;;1.20;99.90;;;;;;6308037;22;20019;-87
2022/03/02 22:42:42;;;;;;;41.15;18.25;;;1.90;99.90;;;;;;6308163;22;20056;-88
2022/03/02 22:45:07;;;;;;;52.72;22.95;;;1.20;99.90;;;;;;6307638;22;20030;-85
2022/03/02 22:47:34;;;;;;;42.92;18.20;;;1.20;99.90;;;;;;6307974;22;20015;-88
2022/03/02 22:50:00;;;;;;;46.42;20.33;;;1.10;99.90;;;;;;6307864;22;20033;-86
2022/03/02 22:52:26;;;;;;;42.38;18.60;;;1.10;99.90;;;;;;6307717;22;20097;-87
2022/03/02 22:54:51;;;;;;;44.10;18.60;;;1.10;99.90;;;;;;6280056;22;20046;-88
2022/03/02 22:57:18;;;;;;;45.67;18.15;;;1.40;99.90;;;;;;6307255;22;20376;-83
2022/03/02 22:59:44;;;;;;;45.45;20.33;;;1.10;99.90;;;;;;6307357;22;20011;-88
2022/03/02 23:02:12;;;;;;;48.42;20.25;;;1.00;99.90;;;;;;6279800;22;20054;-87
2022/03/02 23:15:47;;;;;;;42.47;16.80;;;1.00;99.90;;;;;;6307729;22;20050;-90
2022/03/02 23:18:13;;;;;;;40.00;17.17;;;1.00;99.90;;;;;;6280298;22;20019;-89
2022/03/02 23:20:40;;;;;;;37.85;17.17;;;1.00;99.90;;;;;;6307571;22;20018;-89
2022/03/02 23:23:07;;;;;;;41.05;16.75;;;1.00;99.90;;;;;;6280062;22;20090;-89
2022/03/02 23:25:35;;;;;;;44.28;19.60;;;1.00;99.90;;;;;;6307196;22;20015;-90
2022/03/02 23:28:00;;;;;;;44.85;19.48;;;1.70;99.90;;;;;;6306793;22;20392;-87
2022/03/02 23:30:27;;;;;;;45.67;20.33;;;1.00;99.90;;;;;;6279467;22;20019;-87
2022/03/02 23:32:53;;;;;;;43.85;18.85;;;1.30;99.90;;;;;;6279783;22;20015;-87
2022/03/02 23:35:18;;;;;;;44.88;18.33;;;0.90;99.90;;;;;;6280126;22;20038;-88
2022/03/02 23:37:44;;;;;;;41.90;18.15;;;0.90;99.90;;;;;;6254137;22;20019;-87
2022/03/02 23:40:11;;;;;;;55.70;23.40;;;0.90;99.90;;;;;;6307107;22;20011;-88
2022/03/02 23:42:40;;;;;;;54.08;22.17;;;0.80;99.90;;;;;;6253879;22;20019;-87
2022/03/02 23:45:12;;;;;;;42.67;18.98;;;0.30;99.90;;;;;;6279755;22;20019;-88
2022/03/02 23:47:41;;;;;;;50.28;19.15;;;1.20;99.90;;;;;;6306821;22;20077;-87
2022/03/02 23:50:09;;;;;;;43.10;17.52;;;0.80;99.90;;;;;;6279616;22;20021;-88
2022/03/02 23:52:34;;;;;;;40.00;17.13;;;0.70;99.90;;;;;;6279326;22;20019;-88
2022/03/02 23:55:00;;;;;;;46.47;19.60;;;0.70;99.90;;;;;;6279245;22;20027;-86
2022/03/02 23:57:26;;;;;;;42.50;18.80;;;0.90;99.90;;;;;;6306572;22;20015;-88
2022/03/02 23:59:51;;;;;;;41.63;17.90;;;0.40;99.90;;;;;;6306325;22;20015;-88
